Time;durP1;ratioP1;P1;durP2;ratioP2;P2;SDS_P1;SDS_P2;PMS_P1;PMS_P2;Temp;Humidity;BMP_temperature;BMP_pressure;BME280_temperature;BME280_humidity;BME280_pressure;Samples;Min_cycle;Max_cycle;Signal;HPM_P1;HPM_P2
2022/01/04 00:00:21;;;;;;;95.60;12.15;;;7.20;99.90;;;;;;4987664;28;20577;-76
2022/01/04 00:02:46;;;;;;;130.10;15.63;;;7.20;99.90;;;;;;4991877;28;20035;-76
2022/01/04 00:05:12;;;;;;;93.07;12.32;;;7.20;99.90;;;;;;4991931;28;20453;-77
2022/01/04 00:07:38;;;;;;;108.78;12.73;;;7.20;99.90;;;;;;4983905;28;20113;-72
2022/01/04 00:10:07;;;;;;;109.85;10.63;;;7.20;99.90;;;;;;4983421;28;20031;-76
2022/01/04 00:15:17;;;;;;;110.78;13.20;;;7.10;99.90;;;;;;5012509;23;20509;-76
2022/01/04 00:17:43;;;;;;;109.05;13.52;;;7.10;99.90;;;;;;5026460;28;20041;-75
2022/01/04 00:20:09;;;;;;;100.68;12.27;;;7.10;99.90;;;;;;5028422;28;20049;-75
2022/01/04 00:22:35;;;;;;;123.18;12.45;;;7.10;99.90;;;;;;5021576;28;20033;-77
2022/01/04 00:25:01;;;;;;;120.20;12.63;;;7.10;99.90;;;;;;5020441;28;20056;-76
2022/01/04 00:27:26;;;;;;;135.32;12.43;;;7.10;99.90;;;;;;5026513;28;20080;-74
2022/01/04 00:29:52;;;;;;;92.03;12.63;;;7.10;99.90;;;;;;5024690;28;20110;-76
2022/01/04 00:32:17;;;;;;;116.85;13.30;;;7.00;99.90;;;;;;5024053;28;20018;-74
2022/01/04 00:34:43;;;;;;;88.35;10.93;;;7.00;99.90;;;;;;5023577;28;20029;-77
2022/01/04 00:37:09;;;;;;;87.93;10.75;;;7.00;99.90;;;;;;5031548;28;20091;-77
2022/01/04 00:39:35;;;;;;;120.22;14.70;;;7.00;99.90;;;;;;5025161;28;20033;-77
2022/01/04 00:42:00;;;;;;;82.72;12.57;;;7.00;99.90;;;;;;5018778;28;20032;-76
2022/01/04 00:44:27;;;;;;;122.53;11.18;;;7.00;99.90;;;;;;5026910;28;20508;-77
2022/01/04 00:46:52;;;;;;;113.20;11.63;;;7.00;99.90;;;;;;5024605;28;20026;-77
2022/01/04 00:49:20;;;;;;;107.97;12.10;;;7.00;99.90;;;;;;5022510;28;20036;-77
2022/01/04 00:51:49;;;;;;;115.13;15.00;;;7.00;99.90;;;;;;5025324;28;20053;-77
2022/01/04 00:54:16;;;;;;;91.38;10.57;;;7.00;99.90;;;;;;5023622;28;20481;-75
2022/01/04 00:56:42;;;;;;;107.15;11.63;;;7.10;99.90;;;;;;5026474;28;20030;-77
2022/01/04 00:59:08;;;;;;;110.57;10.73;;;7.00;99.90;;;;;;5026445;28;20018;-76
2022/01/04 01:01:33;;;;;;;104.35;10.68;;;7.00;99.90;;;;;;5032733;28;20485;-76
2022/01/04 01:03:59;;;;;;;95.78;11.07;;;7.00;99.90;;;;;;5029740;28;20022;-75
2022/01/04 01:06:25;;;;;;;102.30;12.45;;;7.00;99.90;;;;;;5024900;28;20017;-76
2022/01/04 01:08:51;;;;;;;91.18;10.95;;;7.00;99.90;;;;;;5024181;28;20382;-75
2022/01/04 01:11:18;;;;;;;103.00;11.32;;;7.00;99.90;;;;;;5023225;28;20026;-75
2022/01/04 01:13:44;;;;;;;120.93;12.13;;;7.00;99.90;;;;;;5029690;28;20047;-75
2022/01/04 01:16:10;;;;;;;92.20;11.98;;;7.00;99.90;;;;;;5025181;28;20038;-75
2022/01/04 01:18:37;;;;;;;101.93;12.07;;;7.00;99.90;;;;;;5024445;28;20038;-73
2022/01/04 01:21:03;;;;;;;104.57;11.32;;;6.90;99.90;;;;;;5034547;28;20022;-73
2022/01/04 01:23:29;;;;;;;111.53;10.45;;;6.90;99.90;;;;;;5034705;28;20056;-72
2022/01/04 01:25:56;;;;;;;90.97;11.50;;;7.00;99.90;;;;;;5034538;28;20037;-72
2022/01/04 01:28:23;;;;;;;117.78;13.02;;;7.00;99.90;;;;;;5034957;28;20393;-73
2022/01/04 01:30:48;;;;;;;87.05;9.55;;;7.00;99.90;;;;;;5034076;28;20366;-72
2022/01/04 01:33:15;;;;;;;84.05;9.90;;;6.90;99.90;;;;;;5034629;28;20017;-72
2022/01/04 01:35:41;;;;;;;100.50;11.20;;;6.90;99.90;;;;;;5034167;28;20447;-72
2022/01/04 01:38:08;;;;;;;90.05;10.15;;;6.90;99.90;;;;;;5034301;28;20021;-72
2022/01/04 01:40:35;;;;;;;109.28;11.40;;;6.90;99.90;;;;;;5033198;28;20025;-72
2022/01/04 01:43:02;;;;;;;81.65;8.60;;;6.90;99.90;;;;;;5033889;28;20484;-72
2022/01/04 01:45:27;;;;;;;115.10;11.93;;;6.90;99.90;;;;;;5034205;28;20100;-72
2022/01/04 01:47:53;;;;;;;99.15;11.85;;;6.90;99.90;;;;;;5034222;28;20056;-73
2022/01/04 01:50:19;;;;;;;82.30;10.82;;;6.90;99.90;;;;;;5034262;28;20026;-72
2022/01/04 01:52:48;;;;;;;93.10;10.70;;;7.00;99.90;;;;;;5032894;28;20022;-73
2022/01/04 01:55:15;;;;;;;86.20;12.48;;;6.90;99.90;;;;;;5032284;28;20554;-73
2022/01/04 01:57:41;;;;;;;115.70;11.98;;;7.00;99.90;;;;;;5034170;28;20036;-73
2022/01/04 02:00:10;;;;;;;95.15;10.23;;;7.00;99.90;;;;;;5033956;28;20033;-73
2022/01/04 02:02:35;;;;;;;92.72;11.73;;;7.00;99.90;;;;;;5033862;28;20021;-73
2022/01/04 02:05:02;;;;;;;111.20;13.23;;;7.00;99.90;;;;;;5033981;28;20021;-73
2022/01/04 02:07:30;;;;;;;102.80;12.43;;;7.00;99.90;;;;;;5033194;28;20028;-73
2022/01/04 02:10:05;;;;;;;100.47;12.23;;;7.00;99.90;;;;;;5033738;28;20503;-73
2022/01/04 02:12:47;;;;;;;98.57;10.85;;;7.00;99.90;;;;;;5033797;28;20079;-73
2022/01/04 02:15:24;;;;;;;102.43;12.13;;;7.00;99.90;;;;;;5033804;28;20104;-73
2022/01/04 02:17:50;;;;;;;81.75;10.40;;;7.00;99.90;;;;;;5031853;28;20501;-72
2022/01/04 02:20:17;;;;;;;116.38;12.25;;;7.00;99.90;;;;;;5033601;28;20520;-73
2022/01/04 02:22:44;;;;;;;90.80;11.77;;;7.00;99.90;;;;;;5033561;28;20032;-73
2022/01/04 02:25:10;;;;;;;89.72;11.75;;;7.00;99.90;;;;;;5033675;28;20039;-73
2022/01/04 02:27:37;;;;;;;91.38;10.75;;;7.00;99.90;;;;;;5033653;28;20105;-73
2022/01/04 02:30:06;;;;;;;93.95;11.25;;;7.00;99.90;;;;;;5033257;28;20025;-73
2022/01/04 02:32:32;;;;;;;109.28;10.43;;;6.90;99.90;;;;;;5033435;28;20029;-73
2022/01/04 02:34:57;;;;;;;29.25;3.75;;;7.00;99.90;;;;;;5033743;28;20025;-73
2022/01/04 02:37:25;;;;;;;23.77;2.20;;;6.90;99.90;;;;;;5033342;28;20068;-73
2022/01/04 02:39:52;;;;;;;10.55;1.50;;;6.70;99.90;;;;;;5032780;28;20057;-72
2022/01/04 02:42:18;;;;;;;6.10;1.40;;;6.50;99.90;;;;;;5031082;28;20045;-72
2022/01/04 02:44:44;;;;;;;7.32;1.38;;;6.30;99.90;;;;;;5032009;28;20079;-73
2022/01/04 02:47:10;;;;;;;6.57;1.05;;;6.20;99.90;;;;;;5032701;28;20067;-73
2022/01/04 02:49:35;;;;;;;7.85;1.20;;;6.20;99.90;;;;;;5033151;28;20018;-73
2022/01/04 02:52:01;;;;;;;5.57;1.20;;;6.20;99.90;;;;;;5033202;28;20424;-73
2022/01/04 02:54:27;;;;;;;4.72;0.88;;;6.20;99.90;;;;;;5033380;28;20029;-72
2022/01/04 02:56:52;;;;;;;5.15;0.95;;;6.20;99.90;;;;;;5032585;28;20030;-71
2022/01/04 02:59:18;;;;;;;19.58;2.60;;;6.10;99.90;;;;;;5033248;28;20100;-71
2022/01/04 03:01:44;;;;;;;5.30;0.95;;;6.10;99.90;;;;;;5033462;28;20497;-71
2022/01/04 03:04:09;;;;;;;8.82;1.42;;;6.10;99.90;;;;;;5031831;28;20029;-71
2022/01/04 03:06:36;;;;;;;9.68;1.50;;;6.10;99.90;;;;;;5033103;28;20469;-71
2022/01/04 03:09:04;;;;;;;7.55;1.40;;;6.10;99.90;;;;;;5033017;28;20501;-71
2022/01/04 03:11:30;;;;;;;7.50;1.00;;;6.10;99.90;;;;;;5031947;28;20511;-71
2022/01/04 03:13:55;;;;;;;10.23;2.50;;;6.10;99.90;;;;;;5033120;28;20053;-71
2022/01/04 03:16:21;;;;;;;14.70;1.30;;;6.10;99.90;;;;;;5032722;28;20493;-71
2022/01/04 03:19:07;;;;;;;10.00;1.38;;;6.10;99.90;;;;;;5033291;28;20045;-71
2022/01/04 03:21:35;;;;;;;10.82;1.85;;;6.10;99.90;;;;;;5032218;28;20046;-71
2022/01/04 03:24:02;;;;;;;6.00;1.25;;;6.10;99.90;;;;;;5036484;28;20033;-72
2022/01/04 03:26:28;;;;;;;15.25;1.85;;;6.10;99.90;;;;;;5036800;28;20389;-72
2022/01/04 03:28:53;;;;;;;23.17;1.73;;;6.10;99.90;;;;;;5036895;28;20021;-72
2022/01/04 03:31:19;;;;;;;10.55;2.15;;;6.10;99.90;;;;;;5036934;28;20029;-71
2022/01/04 03:33:45;;;;;;;19.17;2.72;;;6.10;99.90;;;;;;5037071;28;20033;-71
2022/01/04 03:36:10;;;;;;;15.13;2.03;;;6.20;99.90;;;;;;5036259;28;20040;-71
2022/01/04 03:38:36;;;;;;;22.02;2.70;;;6.20;99.90;;;;;;5036792;28;20389;-71
2022/01/04 03:41:01;;;;;;;23.50;3.90;;;6.20;99.90;;;;;;5036333;28;20037;-71
2022/01/04 03:43:28;;;;;;;28.15;2.53;;;6.20;99.90;;;;;;5036724;28;20057;-71
2022/01/04 03:45:54;;;;;;;19.20;2.80;;;6.20;99.90;;;;;;5035971;28;20124;-71
2022/01/04 03:48:19;;;;;;;41.22;3.60;;;6.20;99.90;;;;;;5035402;28;20053;-71
2022/01/04 03:50:45;;;;;;;31.65;4.38;;;6.20;99.90;;;;;;5036570;28;20017;-71
2022/01/04 03:53:10;;;;;;;40.95;6.38;;;6.30;99.90;;;;;;5036808;28;20036;-71
2022/01/04 03:55:36;;;;;;;46.97;4.22;;;6.20;99.90;;;;;;5036416;28;20104;-71
2022/01/04 03:58:02;;;;;;;30.92;4.13;;;6.20;99.90;;;;;;5036431;28;20025;-71
2022/01/04 04:00:27;;;;;;;30.35;4.53;;;6.10;99.90;;;;;;5035849;28;20022;-71
2022/01/04 04:02:53;;;;;;;28.73;3.53;;;6.10;99.90;;;;;;5036334;28;20033;-72
2022/01/04 04:05:19;;;;;;;29.55;3.60;;;6.00;99.90;;;;;;5036197;28;20028;-72
2022/01/04 04:07:44;;;;;;;30.55;4.50;;;6.00;99.90;;;;;;5034980;28;20053;-72
2022/01/04 04:10:10;;;;;;;27.00;2.83;;;5.90;99.90;;;;;;5035710;28;20033;-72
2022/01/04 04:12:37;;;;;;;18.70;2.30;;;5.90;99.90;;;;;;5036206;28;20052;-72
2022/01/04 04:15:07;;;;;;;16.75;2.10;;;5.90;99.90;;;;;;5036178;28;20026;-72
2022/01/04 04:17:33;;;;;;;19.05;3.25;;;5.90;99.90;;;;;;5035961;28;20056;-72
2022/01/04 04:19:59;;;;;;;15.93;3.33;;;5.90;99.90;;;;;;5036039;28;20498;-72
2022/01/04 04:22:25;;;;;;;23.23;3.42;;;5.90;99.90;;;;;;5036067;28;20034;-72
2022/01/04 04:24:50;;;;;;;21.27;3.20;;;6.00;99.90;;;;;;5035398;28;20039;-72
2022/01/04 04:27:16;;;;;;;40.03;4.70;;;6.00;99.90;;;;;;5035944;28;20108;-72
2022/01/04 04:29:42;;;;;;;37.05;5.15;;;6.10;99.90;;;;;;5035866;28;20108;-72
2022/01/04 04:32:09;;;;;;;31.88;4.13;;;6.10;99.90;;;;;;5035886;28;20109;-72
2022/01/04 04:34:34;;;;;;;43.10;6.18;;;6.00;99.90;;;;;;5035428;28;20034;-73
2022/01/04 04:37:00;;;;;;;32.45;4.35;;;6.10;99.90;;;;;;5035111;28;20091;-72
2022/01/04 04:39:26;;;;;;;35.88;4.72;;;6.10;99.90;;;;;;5035686;28;20030;-72
2022/01/04 04:41:52;;;;;;;21.00;3.80;;;6.10;99.90;;;;;;5035678;28;20092;-72
2022/01/04 04:44:18;;;;;;;27.50;3.35;;;6.10;99.90;;;;;;5035599;28;20029;-72
2022/01/04 04:46:43;;;;;;;35.63;4.60;;;6.10;99.90;;;;;;5035013;28;20029;-72
2022/01/04 04:49:09;;;;;;;28.73;3.30;;;6.10;99.90;;;;;;5035427;28;20388;-72
2022/01/04 04:51:35;;;;;;;32.47;5.25;;;6.20;99.90;;;;;;5035529;28;20022;-73
2022/01/04 04:54:00;;;;;;;37.47;4.00;;;6.10;99.90;;;;;;5035395;28;20111;-72
2022/01/04 04:56:26;;;;;;;37.88;4.22;;;6.10;99.90;;;;;;5035279;28;20025;-72
2022/01/04 04:58:52;;;;;;;23.70;2.65;;;6.10;99.90;;;;;;5035036;28;20037;-72
2022/01/04 05:01:17;;;;;;;39.45;4.20;;;6.20;99.90;;;;;;5035656;28;20025;-72
2022/01/04 05:03:43;;;;;;;52.88;4.68;;;6.20;99.90;;;;;;5035222;28;20083;-72
2022/01/04 05:06:08;;;;;;;50.45;5.57;;;6.20;99.90;;;;;;5035623;28;20080;-72
2022/01/04 05:08:34;;;;;;;59.75;6.45;;;6.20;99.90;;;;;;5034824;28;20027;-72
2022/01/04 05:11:02;;;;;;;82.20;9.25;;;6.20;99.90;;;;;;5034408;28;20036;-73
2022/01/04 05:13:27;;;;;;;66.97;8.15;;;6.20;99.90;;;;;;5033800;28;20025;-72
2022/01/04 05:15:53;;;;;;;77.72;6.25;;;6.20;99.90;;;;;;5035255;28;20099;-72
2022/01/04 05:18:18;;;;;;;57.88;6.55;;;6.20;99.90;;;;;;5034977;28;20038;-73
2022/01/04 05:20:44;;;;;;;54.28;6.97;;;6.20;99.90;;;;;;5034863;28;20044;-72
2022/01/04 05:23:10;;;;;;;58.15;6.88;;;6.20;99.90;;;;;;5034309;28;20040;-72
2022/01/04 05:25:35;;;;;;;54.55;6.07;;;6.10;99.90;;;;;;5034667;28;20061;-73
2022/01/04 05:28:01;;;;;;;58.72;7.57;;;6.10;99.90;;;;;;5034989;28;20481;-73
2022/01/04 05:30:26;;;;;;;67.13;6.22;;;6.10;99.90;;;;;;5034705;28;20121;-73
2022/01/04 05:32:52;;;;;;;66.15;9.00;;;6.10;99.90;;;;;;5034262;28;20037;-73
2022/01/04 05:35:17;;;;;;;48.08;8.68;;;6.00;99.90;;;;;;5034578;28;20537;-73
2022/01/04 05:37:43;;;;;;;35.45;6.70;;;6.00;99.90;;;;;;5034600;28;20481;-73
2022/01/04 05:40:09;;;;;;;47.70;8.25;;;5.90;99.90;;;;;;5034523;28;20485;-73
2022/01/04 05:42:35;;;;;;;21.30;3.38;;;5.90;99.90;;;;;;5033274;28;20056;-73
2022/01/04 05:45:01;;;;;;;17.85;2.17;;;5.70;99.90;;;;;;5033218;28;20083;-72
2022/01/04 05:47:26;;;;;;;10.75;1.50;;;5.50;99.90;;;;;;5033981;28;20104;-73
2022/01/04 05:49:53;;;;;;;11.60;1.65;;;5.30;99.90;;;;;;5032132;28;20036;-73
2022/01/04 05:52:19;;;;;;;5.70;1.20;;;5.20;99.90;;;;;;5034609;28;20104;-73
2022/01/04 05:54:46;;;;;;;17.58;1.58;;;5.20;99.90;;;;;;5033985;28;20056;-72
2022/01/04 05:57:12;;;;;;;10.65;1.70;;;5.20;99.90;;;;;;5032880;28;20037;-73
2022/01/04 05:59:37;;;;;;;6.90;1.30;;;5.20;99.90;;;;;;5034152;28;20478;-73
2022/01/04 06:02:03;;;;;;;5.70;1.42;;;5.10;99.90;;;;;;5034194;28;20056;-73
2022/01/04 06:04:28;;;;;;;13.65;1.30;;;5.10;99.90;;;;;;5034059;28;20029;-73
2022/01/04 06:06:54;;;;;;;19.58;1.90;;;5.10;99.90;;;;;;5033556;28;20025;-73
2022/01/04 06:09:28;;;;;;;19.77;2.47;;;5.10;99.90;;;;;;5034552;28;20130;-73
2022/01/04 06:17:06;;;;;;;13.55;2.97;;;5.00;99.90;;;;;;5045564;23;20586;-72
2022/01/04 06:19:32;;;;;;;8.90;1.60;;;4.90;99.90;;;;;;5014074;28;20473;-72
2022/01/04 06:21:57;;;;;;;7.82;1.92;;;5.00;99.90;;;;;;5014099;28;20049;-72
2022/01/04 06:24:23;;;;;;;10.18;2.17;;;5.00;99.90;;;;;;5013947;28;20034;-72
2022/01/04 06:26:48;;;;;;;14.20;1.35;;;5.00;99.90;;;;;;5013880;28;20026;-72
2022/01/04 06:29:14;;;;;;;9.52;1.70;;;4.90;99.90;;;;;;5014560;28;20381;-72
2022/01/04 06:31:41;;;;;;;12.07;1.85;;;5.00;99.90;;;;;;5013539;28;20022;-72
2022/01/04 06:34:07;;;;;;;11.70;2.47;;;5.00;99.90;;;;;;5013768;28;20493;-72
2022/01/04 06:36:33;;;;;;;11.82;1.45;;;5.00;99.90;;;;;;5013606;28;20404;-72
2022/01/04 06:38:59;;;;;;;9.38;1.98;;;4.90;99.90;;;;;;5013763;28;20029;-72
2022/01/04 06:41:24;;;;;;;10.98;1.88;;;4.90;99.90;;;;;;5013239;28;20034;-72
2022/01/04 06:43:50;;;;;;;11.90;1.70;;;4.90;99.90;;;;;;5013722;28;20455;-72
2022/01/04 06:46:15;;;;;;;11.77;2.10;;;4.90;99.90;;;;;;5013800;28;20033;-72
2022/01/04 06:48:41;;;;;;;10.95;2.22;;;4.90;99.90;;;;;;5013663;28;20014;-72
2022/01/04 06:51:08;;;;;;;7.47;1.70;;;4.90;99.90;;;;;;5013569;28;20022;-72
2022/01/04 06:53:34;;;;;;;4.10;1.30;;;4.90;99.90;;;;;;5012296;28;20026;-72
2022/01/04 06:55:59;;;;;;;10.20;1.73;;;4.90;99.90;;;;;;5011643;28;20028;-72
2022/01/04 06:58:25;;;;;;;6.10;1.50;;;4.90;99.90;;;;;;5013531;28;20441;-72
2022/01/04 07:00:51;;;;;;;11.50;1.50;;;4.90;99.90;;;;;;5013796;28;20489;-72
2022/01/04 07:03:16;;;;;;;2.45;1.10;;;5.00;99.90;;;;;;5013021;28;20054;-72
2022/01/04 07:05:42;;;;;;;4.95;1.33;;;4.90;99.90;;;;;;5013318;28;20022;-72
2022/01/04 07:08:08;;;;;;;13.85;1.98;;;5.00;99.90;;;;;;5012892;28;20888;-72
2022/01/04 07:10:33;;;;;;;5.15;0.80;;;5.00;99.90;;;;;;5013612;28;20030;-72
2022/01/04 07:12:59;;;;;;;8.05;1.20;;;5.00;99.90;;;;;;5013327;28;20029;-72
2022/01/04 07:15:24;;;;;;;11.65;1.77;;;5.10;99.90;;;;;;5013902;28;20101;-72
2022/01/04 07:17:50;;;;;;;15.25;1.33;;;5.10;99.90;;;;;;5013212;28;20500;-72
2022/01/04 07:20:15;;;;;;;5.50;1.48;;;5.10;99.90;;;;;;5013330;28;20421;-72
2022/01/04 07:22:41;;;;;;;4.32;0.98;;;5.00;99.90;;;;;;5012726;28;20390;-71
2022/01/04 07:25:07;;;;;;;8.20;1.60;;;5.00;99.90;;;;;;5013462;28;20026;-71
2022/01/04 07:27:33;;;;;;;8.07;1.35;;;5.00;99.90;;;;;;5011916;28;20067;-72
2022/01/04 07:29:59;;;;;;;13.85;1.70;;;5.00;99.90;;;;;;5013210;28;20123;-72
2022/01/04 07:32:25;;;;;;;6.75;1.20;;;5.00;99.90;;;;;;5013017;28;20032;-72
2022/01/04 07:34:50;;;;;;;6.28;1.13;;;5.00;99.90;;;;;;5011899;28;20489;-72
2022/01/04 07:37:16;;;;;;;7.45;1.27;;;5.10;99.90;;;;;;5013363;28;20045;-72
2022/01/04 07:39:41;;;;;;;11.15;2.17;;;5.10;99.90;;;;;;5013082;28;20026;-72
2022/01/04 07:42:07;;;;;;;6.63;1.63;;;5.00;99.90;;;;;;5013125;28;20053;-72
2022/01/04 07:44:33;;;;;;;11.65;1.63;;;5.00;99.90;;;;;;5015481;28;20040;-72
2022/01/04 07:46:58;;;;;;;4.85;1.45;;;5.00;99.90;;;;;;5012531;28;20033;-72
2022/01/04 07:49:25;;;;;;;16.55;2.40;;;5.00;99.90;;;;;;5013043;28;20395;-72
2022/01/04 07:51:50;;;;;;;12.15;2.53;;;5.00;99.90;;;;;;5013326;28;20018;-71
2022/01/04 07:54:16;;;;;;;13.93;2.03;;;5.00;99.90;;;;;;5013008;28;20022;-72
2022/01/04 07:56:42;;;;;;;15.55;2.05;;;4.90;99.90;;;;;;5012912;28;20018;-72
2022/01/04 07:59:07;;;;;;;14.65;2.80;;;4.90;99.90;;;;;;5012499;28;20025;-72
2022/01/04 08:01:33;;;;;;;24.25;2.55;;;4.90;99.90;;;;;;5012973;28;20037;-71
2022/01/04 08:04:00;;;;;;;15.40;2.35;;;4.80;99.90;;;;;;5013245;28;20084;-72
2022/01/04 08:06:27;;;;;;;4.53;1.70;;;4.90;99.90;;;;;;5012214;28;20048;-72
2022/01/04 08:08:52;;;;;;;7.90;1.48;;;4.90;99.90;;;;;;5014175;28;20030;-72
2022/01/04 08:11:19;;;;;;;9.65;1.98;;;4.80;99.90;;;;;;5015305;28;20508;-72
2022/01/04 08:13:45;;;;;;;11.27;1.80;;;4.70;99.90;;;;;;5016434;28;20018;-71
2022/01/04 08:16:13;;;;;;;20.15;1.85;;;4.70;99.90;;;;;;5015750;28;20034;-72
2022/01/04 08:18:40;;;;;;;10.52;1.58;;;4.60;99.90;;;;;;5016363;28;20478;-72
2022/01/04 08:21:07;;;;;;;4.18;1.45;;;4.60;99.90;;;;;;5016303;28;20100;-72
2022/01/04 08:23:32;;;;;;;7.35;2.00;;;4.60;99.90;;;;;;5016593;28;20022;-72
2022/01/04 08:25:58;;;;;;;6.63;2.25;;;4.50;99.90;;;;;;5017024;28;20084;-72
2022/01/04 08:28:23;;;;;;;9.88;2.13;;;4.50;99.90;;;;;;5015635;28;20034;-72
2022/01/04 08:30:49;;;;;;;11.40;1.85;;;4.50;99.90;;;;;;5016419;28;20026;-72
2022/01/04 08:33:15;;;;;;;10.38;1.45;;;4.50;99.90;;;;;;5016102;28;20060;-72
2022/01/04 08:35:41;;;;;;;13.27;1.92;;;4.40;99.90;;;;;;5016035;28;20022;-72
2022/01/04 08:38:07;;;;;;;7.32;1.65;;;4.40;99.90;;;;;;5016291;28;20033;-72
2022/01/04 08:40:34;;;;;;;12.30;2.03;;;4.50;99.90;;;;;;5015571;28;20083;-72
2022/01/04 08:42:59;;;;;;;11.25;1.90;;;4.40;99.90;;;;;;5015985;28;20029;-72
2022/01/04 08:45:26;;;;;;;18.33;2.38;;;4.40;99.90;;;;;;5016086;28;20022;-72
2022/01/04 08:47:52;;;;;;;11.95;2.53;;;4.30;99.90;;;;;;5015731;28;20030;-72
2022/01/04 08:50:18;;;;;;;13.13;1.90;;;4.30;99.90;;;;;;5015792;28;20033;-72
2022/01/04 08:52:44;;;;;;;13.90;2.47;;;4.30;99.90;;;;;;5015046;28;20026;-72
2022/01/04 08:55:11;;;;;;;16.75;2.88;;;4.30;99.90;;;;;;5015456;28;20441;-72
2022/01/04 08:57:37;;;;;;;15.50;3.08;;;4.30;99.90;;;;;;5015146;28;20485;-72
2022/01/04 09:00:10;;;;;;;23.65;2.65;;;4.30;99.90;;;;;;5015594;28;20038;-72
2022/01/04 09:02:36;;;;;;;15.40;2.67;;;4.30;99.90;;;;;;5015447;28;20028;-72
2022/01/04 09:05:02;;;;;;;15.75;2.40;;;4.30;99.90;;;;;;5014922;28;20029;-72
2022/01/04 09:07:28;;;;;;;14.32;2.22;;;4.30;99.90;;;;;;5015651;28;20544;-72
2022/01/04 09:09:54;;;;;;;11.82;2.22;;;4.30;99.90;;;;;;5015395;28;20022;-72
2022/01/04 09:12:23;;;;;;;22.60;2.55;;;4.30;99.90;;;;;;5015402;28;20065;-72
2022/01/04 09:14:57;;;;;;;12.13;2.33;;;4.40;99.90;;;;;;5014778;28;20022;-72
2022/01/04 09:20:10;;;;;;;19.58;2.78;;;4.30;99.90;;;;;;5014029;28;20088;-72
2022/01/04 09:22:36;;;;;;;13.77;2.25;;;4.30;99.90;;;;;;5015136;28;20036;-72
2022/01/04 09:25:04;;;;;;;10.77;2.10;;;4.30;99.90;;;;;;5013730;28;20041;-72
2022/01/04 09:27:29;;;;;;;15.63;3.85;;;4.40;99.90;;;;;;5015243;28;20022;-72
2022/01/04 09:29:56;;;;;;;18.42;2.90;;;4.40;99.90;;;;;;5014412;28;20366;-72
2022/01/04 09:32:22;;;;;;;21.13;4.57;;;4.40;99.90;;;;;;5014968;28;20021;-72
2022/01/04 09:34:48;;;;;;;20.95;2.70;;;4.40;99.90;;;;;;5014890;28;20057;-71
2022/01/04 09:37:14;;;;;;;13.77;2.35;;;4.30;99.90;;;;;;5014871;28;20378;-72
2022/01/04 09:39:40;;;;;;;8.93;1.83;;;4.40;99.90;;;;;;5014306;28;20037;-72
2022/01/04 09:42:08;;;;;;;13.27;2.28;;;4.40;99.90;;;;;;5014744;28;20080;-72
2022/01/04 09:44:35;;;;;;;8.18;1.85;;;4.30;99.90;;;;;;5014647;28;20029;-72
2022/01/04 09:47:02;;;;;;;12.82;1.63;;;4.30;99.90;;;;;;5014623;28;20026;-72
2022/01/04 09:49:29;;;;;;;15.38;2.88;;;4.20;99.90;;;;;;5017264;28;20014;-72
2022/01/04 09:51:56;;;;;;;12.98;2.03;;;4.40;99.90;;;;;;5014335;28;20101;-72
2022/01/04 09:54:26;;;;;;;15.82;1.80;;;4.40;99.90;;;;;;5014560;28;20487;-72
2022/01/04 09:56:53;;;;;;;10.68;2.00;;;4.40;99.90;;;;;;5014485;28;20021;-72
2022/01/04 09:59:19;;;;;;;7.28;1.10;;;4.40;99.90;;;;;;5013256;28;20030;-72
2022/01/04 10:01:51;;;;;;;20.08;2.28;;;4.30;99.90;;;;;;5014442;28;20485;-72
2022/01/04 10:04:22;;;;;;;15.05;1.50;;;4.30;99.90;;;;;;5014999;28;20022;-72
2022/01/04 10:07:03;;;;;;;8.40;1.52;;;4.30;99.90;;;;;;5012525;28;20030;-72
2022/01/04 10:09:48;;;;;;;11.45;2.08;;;4.30;99.90;;;;;;5014437;28;20024;-73
2022/01/04 10:12:15;;;;;;;11.50;1.27;;;4.30;99.90;;;;;;5014262;28;20057;-72
2022/01/04 10:14:44;;;;;;;14.98;2.38;;;4.30;99.90;;;;;;5014228;28;20026;-72
2022/01/04 10:17:17;;;;;;;11.95;1.65;;;4.30;99.90;;;;;;5014238;28;20057;-72
2022/01/04 10:19:46;;;;;;;12.48;1.70;;;4.30;99.90;;;;;;5014133;28;20481;-72
2022/01/04 10:22:24;;;;;;;15.50;2.13;;;4.30;99.90;;;;;;5013548;28;20036;-72
2022/01/04 10:25:02;;;;;;;12.80;1.40;;;4.40;99.90;;;;;;5013942;28;20077;-72
2022/01/04 10:27:49;;;;;;;5.50;1.35;;;4.40;99.90;;;;;;5012707;28;20026;-71
2022/01/04 10:30:23;;;;;;;8.02;1.42;;;4.30;99.90;;;;;;5013894;28;20492;-72
2022/01/04 10:33:01;;;;;;;11.45;1.27;;;4.20;99.90;;;;;;5013084;28;20078;-72
2022/01/04 10:35:36;;;;;;;12.77;1.42;;;4.10;99.90;;;;;;5013885;28;20389;-72
2022/01/04 10:38:33;;;;;;;13.68;1.52;;;4.10;99.90;;;;;;5013718;28;20026;-72
2022/01/04 10:41:03;;;;;;;12.23;1.85;;;4.00;99.90;;;;;;5013929;28;20397;-72
2022/01/04 10:43:31;;;;;;;11.85;1.65;;;4.00;99.90;;;;;;5013793;28;20042;-72
2022/01/04 10:45:58;;;;;;;7.32;1.00;;;4.00;99.90;;;;;;5012176;28;20116;-72
2022/01/04 10:48:30;;;;;;;19.30;1.63;;;4.00;99.90;;;;;;5013990;28;20026;-72
2022/01/04 10:51:21;;;;;;;17.52;2.17;;;4.10;99.90;;;;;;5012393;28;20037;-72
2022/01/04 10:54:00;;;;;;;10.45;2.28;;;4.10;99.90;;;;;;5013178;28;20022;-72
2022/01/04 10:56:31;;;;;;;15.82;3.08;;;4.10;99.90;;;;;;5014098;28;20053;-71
2022/01/04 10:58:59;;;;;;;13.68;2.13;;;4.10;99.90;;;;;;5013819;28;20023;-72
2022/01/04 11:01:27;;;;;;;16.70;2.58;;;4.10;99.90;;;;;;5012955;28;20612;-71
2022/01/04 11:03:56;;;;;;;10.60;2.47;;;4.10;99.90;;;;;;5013422;28;20117;-71
2022/01/04 11:06:36;;;;;;;14.50;3.28;;;4.10;99.90;;;;;;5013318;28;20105;-71
2022/01/04 11:09:04;;;;;;;15.98;2.47;;;4.20;99.90;;;;;;5013129;28;20061;-72
2022/01/04 11:11:29;;;;;;;21.50;2.92;;;4.20;99.90;;;;;;5012922;28;20030;-72
2022/01/04 11:13:55;;;;;;;17.17;2.58;;;4.30;99.90;;;;;;5012079;28;20018;-71
2022/01/04 11:16:23;;;;;;;19.55;2.65;;;4.30;99.90;;;;;;5013186;28;20040;-72
2022/01/04 11:18:52;;;;;;;14.95;2.00;;;4.40;99.90;;;;;;5013282;28;20032;-73
2022/01/04 11:21:21;;;;;;;10.93;1.52;;;4.40;99.90;;;;;;5012784;28;20041;-73
2022/01/04 11:23:47;;;;;;;18.35;3.92;;;4.40;99.90;;;;;;5008047;28;20038;-73
2022/01/04 11:26:14;;;;;;;21.15;3.22;;;4.50;99.90;;;;;;5001585;28;20174;-72
2022/01/04 11:28:49;;;;;;;13.45;2.28;;;4.60;99.90;;;;;;5003033;28;20037;-72
2022/01/04 11:31:52;;;;;;;14.65;2.65;;;4.70;99.90;;;;;;5003969;28;20416;-73
2022/01/04 11:34:37;;;;;;;13.13;1.85;;;4.70;99.90;;;;;;5004276;28;20022;-73
2022/01/04 11:37:03;;;;;;;11.20;1.42;;;4.80;99.90;;;;;;5004222;28;20113;-73
2022/01/04 11:39:38;;;;;;;13.35;2.08;;;4.80;99.90;;;;;;4998813;28;20108;-72
2022/01/04 11:42:04;;;;;;;18.58;2.00;;;4.80;99.90;;;;;;4999384;28;20026;-73
2022/01/04 11:44:31;;;;;;;24.02;2.65;;;4.90;99.90;;;;;;5005643;28;20029;-73
2022/01/04 11:47:32;;;;;;;11.07;2.03;;;5.00;99.90;;;;;;5005188;28;20470;-73
2022/01/04 11:50:21;;;;;;;15.68;1.98;;;5.00;99.90;;;;;;4986855;28;20035;-73
2022/01/04 11:52:51;;;;;;;20.27;2.10;;;5.10;99.90;;;;;;5021347;28;20037;-73
2022/01/04 11:55:34;;;;;;;16.85;2.75;;;5.10;99.90;;;;;;5008290;28;20042;-73
2022/01/04 11:58:21;;;;;;;10.50;1.38;;;5.10;99.90;;;;;;5002837;28;20042;-73
2022/01/04 12:01:00;;;;;;;19.80;1.92;;;5.20;99.90;;;;;;5002056;28;20037;-73
2022/01/04 12:03:47;;;;;;;9.90;1.40;;;5.20;99.90;;;;;;5016095;28;20508;-73
2022/01/04 12:06:18;;;;;;;12.68;1.83;;;5.20;99.90;;;;;;5016556;28;20500;-73
2022/01/04 12:08:49;;;;;;;21.92;2.25;;;5.30;99.90;;;;;;5015198;28;20025;-72
2022/01/04 12:11:26;;;;;;;15.63;2.13;;;5.30;99.90;;;;;;5015903;28;20018;-72
2022/01/04 12:13:58;;;;;;;8.30;1.33;;;5.30;99.90;;;;;;5016475;28;20492;-72
2022/01/04 12:16:43;;;;;;;13.38;2.00;;;5.30;99.90;;;;;;5040514;23;20045;-73
2022/01/04 12:19:10;;;;;;;10.45;1.65;;;5.20;99.90;;;;;;5035851;28;20040;-73
2022/01/04 12:21:40;;;;;;;10.23;1.55;;;5.20;99.90;;;;;;5036042;28;20050;-73
2022/01/04 12:24:07;;;;;;;18.58;2.35;;;5.20;99.90;;;;;;5035967;28;20420;-73
2022/01/04 12:26:34;;;;;;;10.25;2.13;;;5.30;99.90;;;;;;5035793;28;20037;-73
2022/01/04 12:29:02;;;;;;;7.82;1.92;;;5.20;99.90;;;;;;5035368;28;20481;-73
2022/01/04 12:31:29;;;;;;;9.10;2.38;;;5.20;99.90;;;;;;5035828;28;20049;-73
2022/01/04 12:33:56;;;;;;;11.70;1.35;;;5.20;99.90;;;;;;5035751;28;20092;-73
2022/01/04 12:36:41;;;;;;;14.75;1.98;;;5.20;99.90;;;;;;5035410;28;20025;-73
2022/01/04 12:39:22;;;;;;;16.75;2.13;;;5.30;99.90;;;;;;5034119;28;20032;-73
2022/01/04 12:41:51;;;;;;;15.65;1.92;;;5.30;99.90;;;;;;5035709;28;20026;-72
2022/01/04 12:44:24;;;;;;;12.18;1.70;;;5.40;99.90;;;;;;5035980;28;20473;-73
2022/01/04 12:46:50;;;;;;;;;;;5.50;99.90;;;;;;5035532;28;20048;-72
2022/01/04 12:49:21;;;;;;;15.18;3.10;;;5.50;99.90;;;;;;5035630;28;19905;-72
2022/01/04 12:51:51;;;;;;;25.38;3.42;;;5.40;99.90;;;;;;5035835;28;20363;-72
2022/01/04 12:54:26;;;;;;;20.35;2.08;;;5.50;99.90;;;;;;5035573;28;20358;-72
2022/01/04 12:56:54;;;;;;;16.15;2.20;;;5.50;99.90;;;;;;5034708;28;20021;-73
2022/01/04 12:59:22;;;;;;;17.33;2.08;;;5.40;99.90;;;;;;5034834;28;20048;-73